»·PEaware :: N65764 KSBP-KCNO

N65764 :: KSBP-KCNO

FLIGHT INFORMATION

Flight Status: Arrived
Operator: Privately registered:
United States
More flights under this callsign
Pilot: Gregory Pfeil (35)
Aircraft: Unknown
(P32R)
More flights by this aircraft type
Origin: KSBP San Luis Co Regl
United States
Destination: KCNO Chino
United States
More flights between these airports :: More routes between these airports
Route: +RZS V186 PDZ
File this flight plan on PilotEdge
Remarks: www.pilotcentral.org
Altitude:
(Current/Filed)
7,000ft
Speed:
(Current/Filed)
178kts
Departed: 20-Mar-17 02:54 PM
Arrived: 20-Mar-17 04:19 PM
Distance/Time
Traveled:
166nm/1:25
Distance/Time
To Go:
Arrived

Flight Plot

Page will automatically refresh every two minutes.

Flight plan parsing failed; only flown route is shown


Map Options




Map Legend


Flown Route
Filed Route
Departure Airport
Arrival Airport
Navaid (VOR, NDB)
Fix

Horizontal Profiles

Position Reports

Time Latitude Longitude Heading Altitude Ground
Speed
20-Mar-17 14:37 35.238220 -120.638152 266 215ft 0kts
20-Mar-17 14:38 35.238220 -120.638152 266 215ft 0kts
20-Mar-17 14:39 35.238220 -120.638153 266 215ft 0kts
20-Mar-17 14:40 35.238220 -120.638154 266 215ft 0kts
20-Mar-17 14:41 35.238219 -120.638155 266 215ft 0kts
20-Mar-17 14:42 35.238219 -120.638157 266 215ft 0kts
20-Mar-17 14:43 35.238219 -120.638158 266 215ft 0kts
20-Mar-17 14:44 35.238219 -120.638159 266 215ft 0kts
20-Mar-17 14:45 35.238219 -120.638161 266 215ft 0kts
20-Mar-17 14:46 35.238219 -120.638162 266 215ft 0kts
20-Mar-17 14:47 35.238219 -120.638163 266 215ft 0kts
20-Mar-17 14:48 35.238219 -120.638164 266 215ft 0kts
20-Mar-17 14:49 35.235956 -120.636713 125 216ft 21kts
20-Mar-17 14:50 35.233151 -120.632288 271 215ft 0kts
20-Mar-17 14:51 35.233151 -120.632301 270 215ft 0kts
20-Mar-17 14:52 35.233151 -120.632310 270 215ft 0kts
20-Mar-17 14:53 35.233151 -120.632317 270 215ft 0kts
20-Mar-17 14:54 35.232972 -120.633326 299 215ft 9kts
20-Mar-17 14:55 35.245410 -120.655237 296 802ft 107kts
20-Mar-17 14:56 35.262963 -120.685458 302 2056ft 114kts
20-Mar-17 14:57 35.281560 -120.715068 300 3301ft 109kts
20-Mar-17 14:58 35.300041 -120.745432 303 4447ft 113kts
20-Mar-17 14:59 35.324714 -120.762576 49 5619ft 121kts
20-Mar-17 15:00 35.313789 -120.731425 133 6804ft 113kts
20-Mar-17 15:01 35.288296 -120.694982 135 7006ft 162kts
20-Mar-17 15:02 35.256970 -120.653433 139 7000ft 167kts
20-Mar-17 15:03 35.223262 -120.614062 139 7000ft 168kts
20-Mar-17 15:04 35.189853 -120.574270 139 7000ft 168kts
20-Mar-17 15:05 35.157277 -120.535396 138 6999ft 168kts
20-Mar-17 15:06 35.123821 -120.495482 138 7000ft 168kts
20-Mar-17 15:07 35.090324 -120.455560 139 7000ft 168kts
20-Mar-17 15:08 35.056879 -120.415747 139 6999ft 168kts
20-Mar-17 15:09 35.023368 -120.375906 139 7000ft 168kts
20-Mar-17 15:10 34.989704 -120.335928 139 7000ft 168kts
20-Mar-17 15:11 34.956116 -120.296090 139 7000ft 168kts
20-Mar-17 15:12 34.922473 -120.256246 139 7000ft 168kts
20-Mar-17 15:13 34.888769 -120.216357 138 7009ft 169kts
20-Mar-17 15:14 34.854586 -120.175960 138 7000ft 171kts
20-Mar-17 15:15 34.820476 -120.135692 139 7004ft 170kts
20-Mar-17 15:16 34.786526 -120.095670 139 7006ft 170kts
20-Mar-17 15:17 34.752390 -120.055477 139 7006ft 171kts
20-Mar-17 15:18 34.718282 -120.015360 139 7008ft 170kts
20-Mar-17 15:19 34.684110 -119.975221 139 7009ft 170kts
20-Mar-17 15:20 34.647611 -119.939486 145 7010ft 168kts
20-Mar-17 15:21 34.610497 -119.904749 145 7011ft 168kts
20-Mar-17 15:22 34.573344 -119.869946 145 7014ft 169kts
20-Mar-17 15:23 34.538563 -119.831777 123 7005ft 173kts
20-Mar-17 15:24 34.516481 -119.779452 124 7002ft 173kts
20-Mar-17 15:25 34.488859 -119.732004 127 7000ft 172kts
20-Mar-17 15:26 34.462271 -119.683544 126 7000ft 173kts
20-Mar-17 15:27 34.435822 -119.634965 126 7000ft 173kts
20-Mar-17 15:28 34.409402 -119.586378 126 7001ft 173kts
20-Mar-17 15:29 34.382876 -119.537678 126 7001ft 172kts
20-Mar-17 15:30 34.356429 -119.489173 126 7002ft 172kts
20-Mar-17 15:31 34.329998 -119.440758 126 7002ft 172kts
20-Mar-17 15:32 34.318940 -119.386297 83 7004ft 180kts
20-Mar-17 15:33 34.323777 -119.326063 87 6999ft 179kts
20-Mar-17 15:34 34.328167 -119.266337 87 7000ft 178kts
20-Mar-17 15:35 34.332659 -119.206528 87 6999ft 179kts
20-Mar-17 15:36 34.337126 -119.147136 87 6997ft 178kts
20-Mar-17 15:37 34.341560 -119.087367 87 6994ft 178kts
20-Mar-17 15:38 34.346056 -119.026463 88 6987ft 181kts
20-Mar-17 15:39 34.350475 -118.966482 88 6989ft 178kts
20-Mar-17 15:40 34.354828 -118.906932 88 6999ft 177kts
20-Mar-17 15:41 34.346318 -118.850870 118 7002ft 171kts
20-Mar-17 15:42 34.328083 -118.797249 116 6996ft 172kts
20-Mar-17 15:43 34.309815 -118.743556 116 6994ft 172kts
20-Mar-17 15:44 34.291563 -118.690094 116 6987ft 172kts
20-Mar-17 15:45 34.273284 -118.636709 116 6984ft 172kts
20-Mar-17 15:46 34.254570 -118.582146 116 6990ft 176kts
20-Mar-17 15:47 34.235685 -118.527138 116 6996ft 176kts
20-Mar-17 15:48 34.217156 -118.472071 113 6990ft 176kts
20-Mar-17 15:49 34.200257 -118.415175 113 6991ft 178kts
20-Mar-17 15:50 34.183621 -118.360134 114 6985ft 173kts
20-Mar-17 15:51 34.166818 -118.304884 114 6981ft 175kts
20-Mar-17 15:52 34.150164 -118.250178 114 6947ft 174kts
20-Mar-17 15:53 34.133532 -118.191684 114 6290ft 177kts
20-Mar-17 15:54 34.116339 -118.138855 114 5613ft 164kts
20-Mar-17 15:55 34.099260 -118.085978 113 5022ft 166kts
20-Mar-17 15:56 34.083949 -118.038477 113 5001ft 144kts
20-Mar-17 15:57 34.068328 -117.990199 113 4985ft 158kts
20-Mar-17 15:58 34.052693 -117.941865 113 4997ft 153kts
20-Mar-17 15:59 34.037234 -117.894189 113 4993ft 153kts
20-Mar-17 16:00 34.021774 -117.846579 113 4991ft 152kts
20-Mar-17 16:01 34.006093 -117.798395 113 5001ft 161kts
20-Mar-17 16:02 33.990190 -117.749530 113 4998ft 151kts
20-Mar-17 16:03 33.974620 -117.701792 113 4992ft 154kts
20-Mar-17 16:04 33.958643 -117.652878 113 4986ft 157kts
20-Mar-17 16:05 33.942188 -117.602642 113 4977ft 161kts
20-Mar-17 16:06 33.925953 -117.553130 114 4968ft 158kts
20-Mar-17 16:07 33.931655 -117.500917 61 4600ft 176kts
20-Mar-17 16:08 33.953805 -117.450092 78 4576ft 164kts
20-Mar-17 16:09 33.947792 -117.397079 117 4575ft 158kts
20-Mar-17 16:10 33.915179 -117.363974 139 4581ft 154kts
20-Mar-17 16:11 33.925495 -117.328456 344 4314ft 166kts
20-Mar-17 16:12 33.943875 -117.369800 269 3959ft 143kts
20-Mar-17 16:13 33.946782 -117.414842 275 3829ft 134kts
20-Mar-17 16:14 33.953813 -117.461128 274 3841ft 147kts
20-Mar-17 16:15 33.959136 -117.508174 276 3025ft 131kts
20-Mar-17 16:16 33.964277 -117.549343 275 2103ft 113kts
20-Mar-17 16:17 33.974322 -117.582294 282 1517ft 97kts
20-Mar-17 16:18 33.976020 -117.613664 267 957ft 92kts
20-Mar-17 16:19 33.975755 -117.639840 269 656ft 45kts
20-Mar-17 16:20 33.976571 -117.644121 9 656ft 0kts
20-Mar-17 16:21 33.976583 -117.644119 9 656ft 0kts

Navigation Log

Ident Type
Flight plan parsing failed, navigation log unavailable